Time;durP1;ratioP1;P1;durP2;ratioP2;P2;SDS_P1;SDS_P2;PMS_P1;PMS_P2;Temp;Humidity;BMP_temperature;BMP_pressure;BME280_temperature;BME280_humidity;BME280_pressure;Samples;Min_cycle;Max_cycle;Signal;HPM_P1;HPM_P2
2023/01/24 00:02:47;;;;;;;6.47;4.75;;;;;;;3.15;76.38;102538.25;5014614;28;20095;-72
2023/01/24 00:05:51;;;;;;;7.75;6.35;;;;;;;3.18;76.93;102540.03;5013731;28;20042;-72
2023/01/24 00:08:55;;;;;;;7.97;6.20;;;;;;;3.01;76.34;102535.53;5014375;28;20136;-72
2023/01/24 00:11:59;;;;;;;8.77;6.45;;;;;;;3.17;76.57;102540.88;5014411;28;20057;-72
2023/01/24 00:15:05;;;;;;;8.65;5.68;;;;;;;3.25;76.69;102544.38;5013861;28;20041;-72
2023/01/24 00:18:08;;;;;;;7.90;6.53;;;;;;;3.25;75.80;102550.47;5013623;28;20096;-71
2023/01/24 00:21:15;;;;;;;7.40;5.40;;;;;;;3.22;77.10;102550.41;5014336;28;20096;-71
2023/01/24 00:24:19;;;;;;;5.85;4.63;;;;;;;3.16;75.58;102546.88;5014395;28;20068;-71
2023/01/24 00:27:22;;;;;;;6.18;5.05;;;;;;;3.19;75.93;102544.31;5013874;28;20133;-71
2023/01/24 00:30:28;;;;;;;4.85;3.95;;;;;;;3.24;75.19;102550.41;5014023;28;20057;-72
2023/01/24 00:33:32;;;;;;;5.70;4.25;;;;;;;3.28;75.44;102546.16;5013420;28;20444;-72
2023/01/24 00:36:36;;;;;;;8.07;4.20;;;;;;;3.29;75.24;102541.00;5013334;28;20045;-72
2023/01/24 00:39:39;;;;;;;5.97;4.35;;;;;;;3.33;74.93;102553.09;5013225;28;20049;-72
2023/01/24 00:42:43;;;;;;;4.90;3.55;;;;;;;3.34;74.92;102549.66;5013259;28;20056;-72
2023/01/24 00:45:46;;;;;;;4.88;3.65;;;;;;;3.31;75.16;102557.38;5013410;28;20068;-72
2023/01/24 00:48:51;;;;;;;5.78;4.22;;;;;;;3.30;75.51;102549.63;5013069;28;20080;-72
2023/01/24 00:52:04;;;;;;;6.05;4.35;;;;;;;3.34;75.06;102554.84;5013239;28;20045;-72
2023/01/24 00:55:07;;;;;;;6.57;3.97;;;;;;;3.21;75.88;102550.38;5013704;28;20129;-72
2023/01/24 00:58:12;;;;;;;6.22;4.57;;;;;;;3.26;76.43;102556.50;5012909;28;20129;-72
2023/01/24 01:01:17;;;;;;;8.32;4.43;;;;;;;3.15;75.77;102547.75;5013582;28;20496;-72
2023/01/24 01:04:25;;;;;;;5.38;3.78;;;;;;;3.12;75.53;102547.69;4990541;28;20067;-72
2023/01/24 01:07:33;;;;;;;6.28;4.20;;;;;;;3.22;74.91;102549.53;5013480;28;20108;-72
2023/01/24 01:10:51;;;;;;;7.38;4.47;;;;;;;3.28;74.24;102547.00;5012906;28;20523;-72
2023/01/24 01:13:58;;;;;;;5.72;3.65;;;;;;;3.25;74.13;102542.69;5012473;28;20519;-72
2023/01/24 01:17:09;;;;;;;6.15;4.20;;;;;;;3.23;74.28;102539.22;5013196;28;20036;-72
2023/01/24 01:20:17;;;;;;;5.15;3.47;;;;;;;3.31;73.29;102548.75;5001425;28;20663;-72
2023/01/24 01:23:23;;;;;;;5.38;3.75;;;;;;;3.27;73.72;102553.03;5012403;28;20044;-72
2023/01/24 01:26:26;;;;;;;5.03;3.22;;;;;;;3.27;73.52;102553.03;5012334;28;20114;-72
2023/01/24 01:29:30;;;;;;;5.53;3.90;;;;;;;3.26;73.64;102556.50;5012397;28;20048;-72
2023/01/24 01:32:36;;;;;;;5.53;3.67;;;;;;;3.21;74.06;102561.59;5013436;28;20092;-72
2023/01/24 01:35:39;;;;;;;5.57;3.72;;;;;;;3.21;74.46;102564.19;5013497;28;20135;-72
2023/01/24 01:38:43;;;;;;;5.47;4.25;;;;;;;3.18;73.11;102558.97;5012294;28;20128;-72
2023/01/24 01:41:47;;;;;;;5.18;3.85;;;;;;;3.25;73.18;102565.06;5012435;28;20495;-72
2023/01/24 01:44:53;;;;;;;7.45;3.55;;;;;;;3.12;74.56;102563.22;5012991;28;20048;-72
2023/01/24 01:47:57;;;;;;;6.05;4.45;;;;;;;3.18;74.26;102576.22;5012245;28;20049;-72
2023/01/24 01:51:01;;;;;;;5.45;3.97;;;;;;;3.23;74.31;102575.41;5013246;28;20037;-72
2023/01/24 01:54:10;;;;;;;5.45;3.45;;;;;;;3.29;73.51;102578.91;5012913;28;20129;-72
2023/01/24 01:57:21;;;;;;;4.85;3.40;;;;;;;3.29;73.51;102579.78;5013028;28;20404;-72
2023/01/24 02:00:28;;;;;;;5.65;4.07;;;;;;;3.20;72.90;102567.63;5012669;28;20564;-73
2023/01/24 02:03:46;;;;;;;5.63;3.92;;;;;;;3.24;72.77;102571.09;5013042;28;20084;-72
2023/01/24 02:07:07;;;;;;;5.53;3.92;;;;;;;3.32;73.15;102576.34;5011741;28;20060;-72
2023/01/24 02:10:12;;;;;;;5.78;3.83;;;;;;;3.29;73.59;102573.72;5012751;28;20080;-73
2023/01/24 02:13:16;;;;;;;4.75;3.67;;;;;;;3.25;73.85;102584.06;5011891;28;20463;-72
2023/01/24 02:16:19;;;;;;;5.80;4.05;;;;;;;3.22;74.47;102580.56;5012874;28;20037;-73
2023/01/24 02:24:08;;;;;;;5.43;3.55;;;;;;;3.20;73.58;102572.78;5009314;28;19971;-72
2023/01/24 02:27:27;;;;;;;6.18;4.00;;;;;;;3.04;73.45;102570.88;5012602;28;20053;-72
2023/01/24 02:30:50;;;;;;;;;;;;;;;;;;;;;
2023/01/24 02:34:08;;;;;;;4.88;3.67;;;;;;;3.19;73.12;102557.25;5011914;28;20095;-72
2023/01/24 02:37:24;;;;;;;5.35;3.95;;;;;;;3.23;73.56;102566.78;5011747;28;20080;-72
2023/01/24 02:40:40;;;;;;;5.82;4.20;;;;;;;3.06;73.60;102556.25;5011653;28;20499;-72
2023/01/24 02:44:03;;;;;;;5.72;4.13;;;;;;;2.92;73.77;102556.09;5011609;28;20069;-72
2023/01/24 02:47:10;;;;;;;6.18;4.05;;;;;;;3.01;73.52;102558.78;5012593;28;20052;-73
2023/01/24 02:54:08;;;;;;;7.07;4.32;;;;;;;3.07;73.99;102559.72;5016017;28;20041;-73
2023/01/24 03:00:57;;;;;;;5.35;3.80;;;;;;;3.20;73.48;102566.75;5014972;28;20073;-73
2023/01/24 03:04:13;;;;;;;6.32;4.50;;;;;;;3.03;74.23;102559.69;5014772;28;20151;-73
2023/01/24 03:07:41;;;;;;;5.80;4.05;;;;;;;2.99;73.95;102552.72;5014646;28;20057;-73
2023/01/24 03:10:55;;;;;;;5.88;4.25;;;;;;;2.95;73.77;102550.97;5014853;28;20564;-73
2023/01/24 03:35:17;;;;;;;7.50;4.35;;;;;;;3.28;73.62;102572.00;5003869;28;20121;-72
2023/01/24 03:42:08;;;;;;;6.05;4.25;;;;;;;3.12;73.20;102568.38;5012153;28;21408;-72
2023/01/24 03:45:23;;;;;;;5.20;3.80;;;;;;;3.13;73.81;102583.06;4996365;28;20440;-73
2023/01/24 03:48:36;;;;;;;6.57;4.30;;;;;;;3.25;74.48;102575.41;5013668;28;20052;-73
2023/01/24 03:55:04;;;;;;;6.70;4.90;;;;;;;3.27;73.90;102576.31;5010971;28;20268;-72
2023/01/24 03:58:11;;;;;;;7.47;5.47;;;;;;;3.29;73.39;102582.38;5013820;28;20049;-73
2023/01/24 04:01:21;;;;;;;8.57;5.10;;;;;;;3.28;73.28;102575.44;5013447;28;20049;-73
2023/01/24 04:08:08;;;;;;;6.75;5.00;;;;;;;3.36;73.26;102579.00;5013627;28;20662;-73
2023/01/24 04:11:18;;;;;;;6.38;4.78;;;;;;;3.31;73.24;102580.66;5013608;28;20048;-73
2023/01/24 04:14:31;;;;;;;7.07;5.97;;;;;;;3.14;73.62;102574.44;5013857;28;20405;-73
2023/01/24 04:17:46;;;;;;;6.20;4.65;;;;;;;3.23;73.81;102578.00;5003572;28;20121;-73
2023/01/24 04:20:50;;;;;;;7.60;5.28;;;;;;;3.33;74.02;102572.94;5002509;28;20049;-73
2023/01/24 04:23:54;;;;;;;6.93;5.03;;;;;;;3.37;73.58;102579.84;5013247;28;20381;-73
2023/01/24 04:26:59;;;;;;;7.63;6.05;;;;;;;3.33;73.14;102578.97;5013455;28;20045;-73
2023/01/24 04:30:09;;;;;;;7.57;5.80;;;;;;;3.30;73.02;102586.69;5001963;28;20611;-73
2023/01/24 04:33:15;;;;;;;6.93;5.15;;;;;;;3.30;74.14;102583.25;5013070;28;20389;-73
2023/01/24 04:36:25;;;;;;;6.40;5.13;;;;;;;3.29;74.35;102579.78;5012916;28;20140;-73
2023/01/24 04:39:29;;;;;;;6.45;4.82;;;;;;;3.29;73.76;102584.06;4982380;28;20100;-73
2023/01/24 04:42:48;;;;;;;5.93;4.85;;;;;;;3.27;74.18;102581.47;4992894;28;20261;-73
2023/01/24 04:45:55;;;;;;;6.78;5.65;;;;;;;3.33;74.25;102586.72;5003721;28;20099;-73
2023/01/24 04:49:01;;;;;;;7.15;5.45;;;;;;;3.38;74.25;102585.06;5005119;28;20052;-72
2023/01/24 04:52:13;;;;;;;7.05;5.53;;;;;;;3.32;74.15;102581.53;4999803;28;20124;-72
2023/01/24 04:55:35;;;;;;;7.00;6.22;;;;;;;3.21;74.28;102589.16;5009100;28;20041;-73
2023/01/24 04:58:38;;;;;;;9.40;8.35;;;;;;;3.13;74.85;102593.41;5012238;28;20122;-72
2023/01/24 05:01:42;;;;;;;8.85;7.65;;;;;;;3.09;74.59;102578.69;4989460;28;20451;-72
2023/01/24 05:04:58;;;;;;;8.90;6.88;;;;;;;3.21;74.39;102584.00;5005592;28;20100;-72
2023/01/24 05:08:03;;;;;;;9.48;7.80;;;;;;;3.27;74.05;102591.81;5007041;28;20057;-71
2023/01/24 05:11:06;;;;;;;8.38;7.13;;;;;;;3.26;73.67;102592.69;5005688;28;20091;-71
2023/01/24 05:14:18;;;;;;;9.82;6.55;;;;;;;3.28;73.71;102592.69;5006754;28;20111;-70
2023/01/24 05:17:27;;;;;;;8.93;6.82;;;;;;;3.26;73.99;102587.50;5006541;28;20284;-71
2023/01/24 05:20:33;;;;;;;9.00;7.43;;;;;;;3.27;73.65;102584.06;5006867;28;20064;-72
2023/01/24 05:23:40;;;;;;;9.05;6.97;;;;;;;3.17;73.83;102588.28;5006650;28;20044;-72
2023/01/24 05:26:51;;;;;;;8.77;7.63;;;;;;;3.27;73.96;102589.25;4986653;28;20189;-72
2023/01/24 05:30:06;;;;;;;8.65;7.70;;;;;;;3.34;73.59;102588.44;4976884;28;20140;-73
2023/01/24 05:33:19;;;;;;;12.27;9.50;;;;;;;3.30;73.35;102591.84;4987889;28;20085;-73
2023/01/24 05:36:27;;;;;;;9.40;7.63;;;;;;;3.19;74.15;102588.28;4988048;28;20072;-72
2023/01/24 05:39:34;;;;;;;10.15;7.88;;;;;;;3.25;74.11;102591.81;4985771;28;20104;-72
2023/01/24 05:42:41;;;;;;;9.63;7.13;;;;;;;3.19;73.42;102594.34;4985858;28;20477;-72
2023/01/24 05:45:50;;;;;;;10.35;8.32;;;;;;;3.25;74.06;102601.28;4986722;28;20045;-73
2023/01/24 05:48:56;;;;;;;12.32;8.68;;;;;;;3.23;74.25;102608.16;4988025;28;20046;-72
2023/01/24 05:52:02;;;;;;;13.35;9.55;;;;;;;3.21;74.43;102602.09;4986985;28;20133;-72
2023/01/24 05:55:21;;;;;;;11.63;9.73;;;;;;;3.15;74.41;102602.03;4988417;28;20402;-73
2023/01/24 05:58:32;;;;;;;12.93;10.20;;;;;;;3.13;74.46;102596.00;4987927;28;20049;-72
2023/01/24 06:01:48;;;;;;;10.65;8.35;;;;;;;3.10;75.40;102612.31;4986393;28;20053;-72
2023/01/24 06:04:54;;;;;;;12.70;10.05;;;;;;;3.12;74.99;102609.75;4986833;28;20037;-72
2023/01/24 06:08:01;;;;;;;11.02;9.02;;;;;;;3.07;74.77;102612.28;4986503;28;20057;-73
2023/01/24 06:11:13;;;;;;;10.40;8.20;;;;;;;3.03;75.01;102611.38;4987895;28;20512;-73
2023/01/24 06:14:22;;;;;;;11.20;9.30;;;;;;;3.07;74.27;102614.88;4986740;28;20100;-72
2023/01/24 06:17:29;;;;;;;10.35;8.15;;;;;;;3.08;74.81;102618.31;4987153;28;20049;-72
2023/01/24 06:20:33;;;;;;;10.63;8.65;;;;;;;3.12;74.68;102625.25;4964866;28;20405;-72
2023/01/24 06:23:38;;;;;;;11.55;8.57;;;;;;;3.05;75.44;102628.63;5005401;28;20072;-72
2023/01/24 06:26:46;;;;;;;12.48;9.55;;;;;;;2.96;75.40;102635.38;5009677;28;20133;-72
2023/01/24 06:29:52;;;;;;;12.32;8.90;;;;;;;3.03;75.56;102632.06;5011953;28;20462;-72
